Time;durP1;ratioP1;P1;durP2;ratioP2;P2;SDS_P1;SDS_P2;PMS_P1;PMS_P2;Temp;Humidity;BMP_temperature;BMP_pressure;BME280_temperature;BME280_humidity;BME280_pressure;Samples;Min_cycle;Max_cycle;Signal;HPM_P1;HPM_P2
2022/12/26 00:00:16;;;;;;;22.73;16.05;;;;;;;13.36;71.90;100405.19;675294;29;1331;-81
2022/12/26 00:00:37;;;;;;;21.65;15.85;;;;;;;13.33;72.03;100402.53;672740;29;1040;-81
2022/12/26 00:01:04;;;;;;;21.05;15.70;;;;;;;13.35;72.21;100399.94;677874;29;1257;-81
2022/12/26 00:01:27;;;;;;;20.35;15.30;;;;;;;13.38;72.16;100413.94;675301;29;1279;-81
2022/12/26 00:01:50;;;;;;;20.15;15.30;;;;;;;13.37;71.88;100414.81;672880;29;1369;-81
2022/12/26 00:02:11;;;;;;;20.45;15.50;;;;;;;13.33;71.87;100405.16;672720;29;1480;-81
2022/12/26 00:02:31;;;;;;;21.40;15.33;;;;;;;13.41;72.40;100419.22;670321;29;1168;-80
2022/12/26 00:02:52;;;;;;;21.38;15.18;;;;;;;13.37;72.20;100409.59;677979;29;881;-81
2022/12/26 00:03:13;;;;;;;20.67;14.77;;;;;;;13.30;72.05;100398.13;675385;29;1339;-81
2022/12/26 00:03:36;;;;;;;20.45;15.27;;;;;;;13.35;72.08;100406.06;675255;29;1474;-80
2022/12/26 00:03:56;;;;;;;21.20;16.08;;;;;;;13.37;72.49;100409.59;675496;29;875;-81
2022/12/26 00:04:18;;;;;;;23.35;16.80;;;;;;;13.39;72.10;100413.09;678027;29;1071;-81
2022/12/26 00:04:38;;;;;;;22.75;16.42;;;;;;;13.41;72.24;100416.59;675285;29;1287;-81
2022/12/26 00:04:59;;;;;;;21.77;15.75;;;;;;;13.36;72.04;100413.06;675593;29;808;-81
2022/12/26 00:05:19;;;;;;;21.60;16.00;;;;;;;13.38;71.94;100416.56;670128;29;1176;-81
2022/12/26 00:05:40;;;;;;;21.60;15.90;;;;;;;13.41;72.21;100411.34;670165;29;1186;-81
2022/12/26 00:06:00;;;;;;;20.65;15.85;;;;;;;13.37;72.39;100409.59;670296;29;781;-81
2022/12/26 00:06:25;;;;;;;20.30;15.60;;;;;;;13.33;72.04;100406.91;675239;29;1134;-81
2022/12/26 00:06:46;;;;;;;21.42;16.42;;;;;;;13.33;72.16;100399.91;675171;29;1182;-81
2022/12/26 00:07:06;;;;;;;22.40;16.52;;;;;;;13.32;72.09;100395.53;672743;29;982;-81
2022/12/26 00:07:27;;;;;;;22.80;16.60;;;;;;;13.41;72.21;100406.09;670182;29;1330;-81
2022/12/26 00:07:47;;;;;;;23.27;16.75;;;;;;;13.40;72.03;100400.88;672590;29;1458;-81
2022/12/26 00:08:08;;;;;;;24.88;17.10;;;;;;;13.40;72.04;100408.75;672709;29;1141;-81
2022/12/26 00:08:29;;;;;;;25.03;16.70;;;;;;;13.42;71.89;100402.63;672772;29;1220;-81
2022/12/26 00:08:50;;;;;;;23.13;16.05;;;;;;;13.40;71.94;100404.34;672714;29;1081;-81
2022/12/26 00:09:11;;;;;;;22.73;16.15;;;;;;;13.44;72.10;100405.25;672782;29;1055;-81
2022/12/26 00:09:33;;;;;;;22.40;16.53;;;;;;;13.42;71.88;100402.63;670226;29;1376;-81
2022/12/26 00:09:53;;;;;;;23.40;17.40;;;;;;;13.38;71.81;100403.47;672790;29;885;-81
2022/12/26 00:10:14;;;;;;;22.38;16.95;;;;;;;13.36;71.84;100399.97;675365;29;1012;-81
2022/12/26 00:10:34;;;;;;;23.87;16.93;;;;;;;13.41;71.87;100411.34;670240;29;1222;-81
2022/12/26 00:10:55;;;;;;;25.02;16.70;;;;;;;13.38;72.01;100410.44;672714;29;1330;-81
2022/12/26 00:11:17;;;;;;;25.75;17.10;;;;;;;13.33;72.12;100409.53;672603;29;1159;-81
2022/12/26 00:11:37;;;;;;;23.38;16.83;;;;;;;13.37;72.18;100420.06;677889;29;1255;-81
2022/12/26 00:11:58;;;;;;;24.20;16.98;;;;;;;13.33;72.21;100410.38;675375;29;1283;-81
2022/12/26 00:12:19;;;;;;;23.95;16.90;;;;;;;13.29;71.82;100408.63;677862;29;1102;-81
2022/12/26 00:12:39;;;;;;;24.02;17.00;;;;;;;13.38;72.07;100416.56;675224;29;1184;-82
2022/12/26 00:13:01;;;;;;;23.17;17.05;;;;;;;13.29;71.87;100406.00;675365;29;1091;-81
2022/12/26 00:13:22;;;;;;;23.42;17.30;;;;;;;13.29;72.26;100408.63;670313;29;1088;-81
2022/12/26 00:13:43;;;;;;;23.30;16.95;;;;;;;13.28;72.23;100407.72;672634;29;1950;-81
2022/12/26 00:14:10;;;;;;;22.98;17.25;;;;;;;13.31;72.10;100414.75;670174;29;1277;-82
2022/12/26 00:14:31;;;;;;;23.90;16.95;;;;;;;13.24;72.11;100413.81;677877;29;1232;-80
2022/12/26 00:14:51;;;;;;;25.60;17.60;;;;;;;13.24;72.39;100412.91;677903;29;1227;-81
2022/12/26 00:15:12;;;;;;;24.00;16.98;;;;;;;13.28;72.44;100417.34;672813;29;1068;-81
2022/12/26 00:15:32;;;;;;;23.30;17.10;;;;;;;13.25;72.03;100409.44;672743;29;1012;-81
2022/12/26 00:15:53;;;;;;;21.52;16.75;;;;;;;13.20;72.06;100406.75;672834;29;808;-81
2022/12/26 00:16:17;;;;;;;22.23;16.88;;;;;;;13.24;72.22;100415.53;670054;29;1709;-81
2022/12/26 00:16:39;;;;;;;23.40;16.75;;;;;;;13.23;72.40;100417.28;672600;29;1320;-81
2022/12/26 00:17:00;;;;;;;25.20;16.88;;;;;;;13.21;72.38;100402.41;672650;29;1270;-81
2022/12/26 00:17:21;;;;;;;24.10;16.40;;;;;;;13.20;72.26;100405.91;680582;29;1090;-81
2022/12/26 00:17:41;;;;;;;23.67;16.63;;;;;;;13.23;72.41;100400.69;672823;29;1136;-81
2022/12/26 00:18:02;;;;;;;24.45;16.73;;;;;;;13.21;72.23;100397.19;672806;29;996;-81
2022/12/26 00:18:22;;;;;;;25.73;16.80;;;;;;;13.22;72.48;100405.03;670138;29;1271;-81
2022/12/26 00:18:44;;;;;;;26.20;16.90;;;;;;;13.24;72.12;100403.34;669682;29;1131;-81
2022/12/26 00:19:05;;;;;;;23.60;16.88;;;;;;;13.18;72.11;100394.50;672715;29;1264;-81
2022/12/26 00:19:26;;;;;;;22.20;16.47;;;;;;;13.24;72.27;100412.91;672831;29;955;-81
2022/12/26 00:19:46;;;;;;;20.42;15.50;;;;;;;13.28;72.64;100399.88;675233;29;1267;-81
2022/12/26 00:20:07;;;;;;;20.90;15.10;;;;;;;13.29;72.31;100408.63;675262;29;1469;-81
2022/12/26 00:20:28;;;;;;;21.05;14.82;;;;;;;13.29;72.34;100411.25;677925;29;1275;-81
2022/12/26 00:20:49;;;;;;;20.73;15.20;;;;;;;13.27;72.41;100402.50;677985;29;1197;-82
2022/12/26 00:21:12;;;;;;;21.10;15.65;;;;;;;13.26;72.31;100406.84;669982;29;1357;-81
2022/12/26 00:21:32;;;;;;;21.15;16.13;;;;;;;13.26;72.33;100401.59;667522;29;1100;-81
2022/12/26 00:21:53;;;;;;;21.88;15.93;;;;;;;13.30;72.12;100413.84;667634;29;946;-82
2022/12/26 00:22:14;;;;;;;22.17;15.63;;;;;;;13.25;72.02;100399.84;670135;29;1027;-82
2022/12/26 00:22:35;;;;;;;23.25;16.02;;;;;;;13.25;72.19;100410.31;675209;29;1203;-82
2022/12/26 00:22:56;;;;;;;23.80;16.60;;;;;;;13.15;72.29;100400.63;675351;29;903;-82
2022/12/26 00:23:16;;;;;;;23.83;16.77;;;;;;;13.11;72.19;100396.19;672758;29;1193;-82
2022/12/26 00:23:37;;;;;;;22.75;16.70;;;;;;;13.15;72.41;100413.72;672721;29;885;-82
2022/12/26 00:23:59;;;;;;;20.95;16.30;;;;;;;13.10;72.68;100403.16;675355;29;1521;-82
2022/12/26 00:24:19;;;;;;;20.73;15.82;;;;;;;13.13;72.36;100405.81;677947;29;1260;-83
2022/12/26 00:24:40;;;;;;;20.00;15.70;;;;;;;13.15;72.48;100408.47;672559;29;1136;-82
2022/12/26 00:25:01;;;;;;;21.60;15.70;;;;;;;13.10;72.21;100400.53;675309;29;1168;-82
2022/12/26 00:25:22;;;;;;;21.20;15.90;;;;;;;13.09;72.66;100393.53;675263;29;1360;-82
2022/12/26 00:25:42;;;;;;;23.63;16.10;;;;;;;13.12;72.67;100403.19;677662;29;1182;-83
2022/12/26 00:26:10;;;;;;;22.60;16.07;;;;;;;13.13;72.37;100397.97;675351;29;1195;-82
2022/12/26 00:26:34;;;;;;;22.35;16.25;;;;;;;13.17;72.58;100406.75;675198;29;967;-82
2022/12/26 00:26:55;;;;;;;21.98;16.63;;;;;;;13.09;72.31;100398.78;675200;29;1368;-83
2022/12/26 00:27:15;;;;;;;21.25;16.40;;;;;;;13.18;72.17;100398.00;672803;29;1097;-83
2022/12/26 00:27:36;;;;;;;21.58;16.08;;;;;;;13.13;72.23;100397.97;675286;29;1084;-82
2022/12/26 00:27:56;;;;;;;21.93;15.80;;;;;;;13.13;72.17;100397.06;672726;29;1291;-82
2022/12/26 00:28:17;;;;;;;21.42;15.85;;;;;;;13.19;72.36;100405.00;674794;29;1195;-83
2022/12/26 00:28:38;;;;;;;21.67;15.97;;;;;;;13.16;72.16;100404.97;675247;29;1037;-82
2022/12/26 00:28:59;;;;;;;22.58;16.42;;;;;;;13.17;72.39;100396.25;675403;29;1362;-82
2022/12/26 00:29:19;;;;;;;23.33;16.60;;;;;;;13.18;72.22;100407.59;670165;29;1183;-82
2022/12/26 00:29:40;;;;;;;22.70;16.50;;;;;;;13.13;72.31;100408.44;677809;29;1369;-82
2022/12/26 00:30:02;;;;;;;21.97;16.70;;;;;;;13.12;72.29;100403.19;675340;29;1188;-82
2022/12/26 00:30:22;;;;;;;22.60;16.85;;;;;;;13.10;72.40;100400.53;672723;29;994;-82
2022/12/26 00:30:43;;;;;;;24.42;17.30;;;;;;;13.22;72.42;100409.41;675243;29;1009;-82
2022/12/26 00:31:05;;;;;;;23.63;16.90;;;;;;;13.12;72.33;100404.06;672925;29;1108;-82
2022/12/26 00:31:29;;;;;;;23.20;17.10;;;;;;;13.13;72.20;100404.94;672606;29;1306;-82
2022/12/26 00:31:49;;;;;;;22.50;16.80;;;;;;;13.15;72.13;100408.47;675073;29;1297;-82
2022/12/26 00:32:10;;;;;;;23.75;17.40;;;;;;;13.12;72.39;100404.06;672679;29;1083;-82
2022/12/26 00:32:31;;;;;;;23.60;17.45;;;;;;;13.16;72.38;100416.31;670176;29;1136;-82
2022/12/26 00:32:51;;;;;;;23.55;17.40;;;;;;;13.17;72.42;100417.22;675275;29;785;-82
2022/12/26 00:33:12;;;;;;;24.57;17.37;;;;;;;13.09;72.29;100404.00;675215;29;1171;-82
2022/12/26 00:33:36;;;;;;;24.00;17.17;;;;;;;13.09;72.49;100409.25;675429;29;1082;-82
2022/12/26 00:33:58;;;;;;;23.13;17.67;;;;;;;13.15;72.43;100424.19;670153;29;1279;-82
2022/12/26 00:34:18;;;;;;;23.80;17.52;;;;;;;13.09;72.35;100417.13;672687;29;1269;-82
2022/12/26 00:34:39;;;;;;;25.00;17.55;;;;;;;13.08;72.47;100417.13;672659;29;1111;-83
2022/12/26 00:35:00;;;;;;;24.93;17.13;;;;;;;13.06;72.45;100405.72;672734;29;902;-82
2022/12/26 00:35:20;;;;;;;24.92;17.27;;;;;;;13.09;72.74;100419.72;672682;29;1088;-82
2022/12/26 00:35:41;;;;;;;25.15;17.02;;;;;;;13.10;72.45;100415.38;670099;29;1151;-83
2022/12/26 00:36:06;;;;;;;24.98;17.08;;;;;;;13.10;72.75;100421.50;670145;29;1138;-82
2022/12/26 00:36:30;;;;;;;25.38;17.40;;;;;;;13.12;72.56;100422.41;667085;29;1401;-83
2022/12/26 00:36:50;;;;;;;25.15;17.83;;;;;;;13.11;72.78;100411.91;664875;29;867;-82
2022/12/26 00:37:11;;;;;;;23.20;17.30;;;;;;;13.09;72.67;100414.50;670144;29;1234;-83
2022/12/26 00:37:32;;;;;;;23.25;17.02;;;;;;;13.08;72.51;100414.50;672780;29;1192;-82
2022/12/26 00:37:52;;;;;;;22.50;17.15;;;;;;;13.10;72.44;100424.09;675259;29;1203;-83
2022/12/26 00:38:14;;;;;;;22.67;17.00;;;;;;;13.05;72.81;100411.81;675197;29;1169;-83
2022/12/26 00:38:37;;;;;;;22.20;17.30;;;;;;;13.05;72.68;100411.81;670118;29;1390;-82
2022/12/26 00:38:59;;;;;;;23.00;17.20;;;;;;;13.05;72.51;100402.25;667606;29;1276;-83
2022/12/26 00:39:20;;;;;;;23.83;17.50;;;;;;;13.06;72.82;100404.00;667653;29;1227;-83
2022/12/26 00:39:40;;;;;;;23.77;16.98;;;;;;;13.04;72.86;100405.72;672209;29;1264;-83
2022/12/26 00:40:01;;;;;;;22.10;16.20;;;;;;;13.12;72.46;100425.03;672644;29;864;-83
2022/12/26 00:40:22;;;;;;;20.63;15.68;;;;;;;13.13;72.62;100418.03;672699;29;1192;-83
2022/12/26 00:40:43;;;;;;;19.35;15.18;;;;;;;13.09;72.52;100419.72;667552;29;1199;-83
2022/12/26 00:41:06;;;;;;;19.55;15.60;;;;;;;13.09;72.53;100414.50;672694;29;1028;-83
2022/12/26 00:41:27;;;;;;;21.17;15.98;;;;;;;13.13;72.54;100421.53;672725;29;1298;-83
2022/12/26 00:41:48;;;;;;;21.27;16.40;;;;;;;13.10;72.68;100420.63;672613;29;1441;-83
2022/12/26 00:42:08;;;;;;;20.17;15.53;;;;;;;13.08;72.56;100414.50;675219;29;1064;-82
2022/12/26 00:42:29;;;;;;;19.60;15.00;;;;;;;13.08;72.63;100417.97;670177;29;1092;-82
2022/12/26 00:42:49;;;;;;;20.33;14.80;;;;;;;13.11;72.52;100419.75;670055;29;1317;-83
2022/12/26 00:43:10;;;;;;;19.73;14.75;;;;;;;13.07;72.71;100416.22;667506;29;1199;-82
2022/12/26 00:43:31;;;;;;;19.85;14.65;;;;;;;13.04;72.61;100410.97;670232;29;1017;-82
2022/12/26 00:43:52;;;;;;;18.17;13.98;;;;;;;13.11;72.57;100417.13;672725;29;898;-83
2022/12/26 00:44:13;;;;;;;17.45;13.52;;;;;;;13.08;72.24;100411.88;670129;29;1296;-82
2022/12/26 00:44:33;;;;;;;15.70;13.10;;;;;;;13.10;72.64;100416.25;670112;29;1213;-82
2022/12/26 00:44:54;;;;;;;15.60;12.87;;;;;;;13.04;72.51;100407.44;675276;29;1296;-82
2022/12/26 00:45:15;;;;;;;15.40;12.85;;;;;;;13.05;72.57;100412.72;675308;29;1016;-83
2022/12/26 00:45:36;;;;;;;17.08;12.90;;;;;;;13.03;72.29;100419.66;672224;29;1111;-82
2022/12/26 00:45:56;;;;;;;17.40;13.13;;;;;;;12.96;72.71;100403.00;672738;29;822;-82
2022/12/26 00:46:18;;;;;;;17.33;13.40;;;;;;;13.01;72.73;100421.38;675067;29;1269;-82
2022/12/26 00:46:39;;;;;;;17.73;13.95;;;;;;;12.96;72.88;100407.38;674721;29;1026;-82
2022/12/26 00:46:59;;;;;;;18.50;13.80;;;;;;;13.02;72.73;100417.91;675180;29;938;-83
2022/12/26 00:47:20;;;;;;;19.33;13.90;;;;;;;13.03;72.92;100419.66;675229;29;1138;-83
2022/12/26 00:47:40;;;;;;;17.95;13.55;;;;;;;13.01;72.70;100419.66;677858;29;1181;-82
2022/12/26 00:48:01;;;;;;;16.92;13.48;;;;;;;13.00;72.63;100409.16;677947;29;1254;-83
2022/12/26 00:48:22;;;;;;;16.23;12.90;;;;;;;12.98;72.91;100410.88;672750;29;1248;-83
2022/12/26 00:48:43;;;;;;;15.43;12.50;;;;;;;13.01;72.66;100416.16;670160;29;983;-83
2022/12/26 00:49:03;;;;;;;14.40;12.50;;;;;;;13.02;73.00;100416.16;675278;29;1059;-83
2022/12/26 00:49:24;;;;;;;14.70;12.40;;;;;;;12.97;72.64;100414.38;675322;29;1102;-83
2022/12/26 00:49:45;;;;;;;15.00;12.30;;;;;;;12.98;72.82;100411.75;675293;29;1156;-83
2022/12/26 00:50:07;;;;;;;15.70;12.10;;;;;;;12.96;73.01;100412.59;672693;29;1181;-84
2022/12/26 00:50:27;;;;;;;15.77;12.05;;;;;;;12.91;72.93;100411.63;675307;29;871;-83
2022/12/26 00:50:48;;;;;;;15.70;12.25;;;;;;;12.96;73.01;100423.09;677725;29;1280;-84
2022/12/26 00:51:09;;;;;;;14.88;12.10;;;;;;;12.91;73.02;100411.63;677925;29;987;-83
2022/12/26 00:51:29;;;;;;;15.57;12.07;;;;;;;12.88;72.94;100405.50;672720;29;1321;-83
2022/12/26 00:51:50;;;;;;;15.33;11.80;;;;;;;12.95;73.12;100413.44;672725;29;1313;-83
2022/12/26 00:52:10;;;;;;;14.95;11.90;;;;;;;12.91;73.00;100415.09;672524;29;1125;-83
2022/12/26 00:52:31;;;;;;;13.03;11.40;;;;;;;12.84;72.88;100403.69;672671;29;1128;-83
2022/12/26 00:52:52;;;;;;;13.07;11.32;;;;;;;12.89;72.98;100411.59;675158;29;1185;-83
2022/12/26 00:53:13;;;;;;;13.35;11.43;;;;;;;12.90;72.96;100415.97;674973;29;1214;-82
2022/12/26 00:53:34;;;;;;;13.43;11.50;;;;;;;12.89;72.88;100409.88;672761;29;1048;-83
2022/12/26 00:53:55;;;;;;;13.90;11.63;;;;;;;12.93;73.19;100417.75;675266;29;1899;-82
2022/12/26 00:54:15;;;;;;;13.68;11.25;;;;;;;12.92;73.16;100416.00;672093;29;1066;-82
2022/12/26 00:54:36;;;;;;;14.47;11.47;;;;;;;12.85;73.16;100399.34;675251;29;1010;-83
2022/12/26 00:54:56;;;;;;;14.33;11.30;;;;;;;12.88;72.97;100405.50;675189;29;1201;-82
2022/12/26 00:55:17;;;;;;;13.85;11.20;;;;;;;12.92;73.15;100403.81;667559;29;1258;-83
2022/12/26 00:55:38;;;;;;;13.80;10.80;;;;;;;12.95;72.86;100416.06;667567;29;1207;-82
2022/12/26 00:55:59;;;;;;;13.10;10.63;;;;;;;12.96;73.15;100415.22;672614;29;1222;-83
2022/12/26 00:56:19;;;;;;;13.02;10.32;;;;;;;12.93;72.96;100409.91;670058;29;1115;-82
2022/12/26 00:56:40;;;;;;;13.95;10.50;;;;;;;12.90;72.70;100408.13;675100;29;1115;-82
2022/12/26 00:57:00;;;;;;;14.13;10.70;;;;;;;12.92;72.98;100410.75;672694;29;798;-82
2022/12/26 00:57:21;;;;;;;16.00;11.30;;;;;;;12.88;73.21;100402.88;666833;29;1203;-82
2022/12/26 00:57:42;;;;;;;14.38;11.10;;;;;;;12.85;72.99;100404.59;664360;29;1330;-82
2022/12/26 00:58:02;;;;;;;13.93;10.57;;;;;;;12.86;72.98;100401.97;667544;29;1434;-82
2022/12/26 00:58:23;;;;;;;12.00;10.40;;;;;;;12.91;72.94;100409.88;670167;29;1169;-82
2022/12/26 00:58:44;;;;;;;13.05;10.57;;;;;;;12.84;72.97;100401.06;675292;29;1093;-83
2022/12/26 00:59:05;;;;;;;12.70;10.68;;;;;;;12.88;73.26;100405.50;675323;29;1164;-82
2022/12/26 00:59:25;;;;;;;13.13;10.73;;;;;;;12.86;73.07;100401.97;672583;29;1202;-82
2022/12/26 00:59:46;;;;;;;12.37;10.50;;;;;;;12.94;72.92;100419.53;675220;29;1092;-82
2022/12/26 01:00:07;;;;;;;12.40;10.35;;;;;;;12.80;72.77;100390.53;677773;29;1203;-84
2022/12/26 01:00:28;;;;;;;12.15;10.20;;;;;;;12.87;73.05;100416.84;677775;29;1397;-82
2022/12/26 01:00:49;;;;;;;11.53;9.90;;;;;;;12.86;73.15;100407.19;672563;29;1266;-83
2022/12/26 01:01:16;;;;;;;12.00;9.95;;;;;;;12.85;73.00;100413.28;672551;29;1419;-82
2022/12/26 01:01:36;;;;;;;10.88;9.20;;;;;;;12.83;72.98;100401.94;677558;29;1231;-82
2022/12/26 01:01:57;;;;;;;10.68;9.15;;;;;;;12.83;72.83;100414.13;675153;29;1414;-82
2022/12/26 01:02:56;;;;;;;11.10;8.90;;;;;;;12.83;73.15;100408.91;672621;29;860;-83
2022/12/26 01:03:17;;;;;;;11.05;9.15;;;;;;;12.83;73.01;100412.41;669973;29;1303;-83
2022/12/26 01:03:39;;;;;;;10.98;9.10;;;;;;;12.79;73.09;100405.34;675222;29;992;-82
2022/12/26 01:04:00;;;;;;;11.00;9.23;;;;;;;12.80;73.17;100401.91;675421;29;797;-82
2022/12/26 01:04:21;;;;;;;10.70;9.15;;;;;;;12.76;73.26;100405.31;672643;29;1079;-83
2022/12/26 01:04:41;;;;;;;10.63;9.47;;;;;;;12.79;73.10;100404.50;675312;29;1187;-82
2022/12/26 01:05:03;;;;;;;12.13;9.55;;;;;;;12.80;73.41;100411.50;677929;29;1186;-82
2022/12/26 01:05:23;;;;;;;12.15;9.18;;;;;;;12.79;73.08;100402.75;675294;29;1280;-82
2022/12/26 01:05:47;;;;;;;12.83;9.00;;;;;;;12.79;72.91;100401.88;675184;29;1284;-82
2022/12/26 01:06:09;;;;;;;11.85;8.88;;;;;;;12.80;73.25;100399.28;672491;29;1138;-82
2022/12/26 01:06:30;;;;;;;11.45;8.88;;;;;;;12.84;73.02;100414.16;667554;29;1263;-82
2022/12/26 01:06:50;;;;;;;11.82;9.05;;;;;;;12.81;73.40;100408.91;669921;29;1270;-82
2022/12/26 01:07:11;;;;;;;11.77;9.10;;;;;;;12.79;72.96;100412.34;670043;29;1153;-82
2022/12/26 01:07:34;;;;;;;11.60;9.20;;;;;;;12.80;73.05;100408.88;672679;29;1232;-81
2022/12/26 01:07:54;;;;;;;10.70;8.88;;;;;;;12.80;73.02;100411.50;669911;29;1435;-82
2022/12/26 01:08:16;;;;;;;10.73;9.00;;;;;;;12.81;73.11;100416.75;667495;29;1126;-82
2022/12/26 01:08:37;;;;;;;10.57;8.82;;;;;;;12.81;73.16;100414.13;667482;29;1408;-82
2022/12/26 01:08:58;;;;;;;10.50;8.80;;;;;;;12.83;72.78;100422.00;670049;29;726;-82
2022/12/26 01:09:19;;;;;;;10.40;8.45;;;;;;;12.85;72.82;100426.38;675134;29;1169;-82
2022/12/26 01:09:39;;;;;;;10.00;8.10;;;;;;;12.86;73.01;100427.28;672592;29;1206;-83
2022/12/26 01:10:00;;;;;;;10.07;7.57;;;;;;;12.87;73.07;100440.41;675327;29;931;-83
2022/12/26 01:10:20;;;;;;;9.60;7.23;;;;;;;12.89;72.70;100438.69;670011;29;1296;-82
2022/12/26 01:10:43;;;;;;;9.60;7.43;;;;;;;12.91;73.07;100440.44;672593;29;1119;-82
2022/12/26 01:11:10;;;;;;;9.48;7.55;;;;;;;12.86;72.83;100435.13;672597;29;1322;-82
2022/12/26 01:11:40;;;;;;;9.77;8.07;;;;;;;12.77;72.85;100417.56;675226;29;1276;-82
2022/12/26 01:12:00;;;;;;;9.98;8.10;;;;;;;12.79;72.92;100421.06;675291;29;869;-82
2022/12/26 01:12:21;;;;;;;10.00;8.20;;;;;;;12.88;73.05;100442.16;675082;29;1277;-82
2022/12/26 01:12:42;;;;;;;9.65;7.70;;;;;;;12.80;73.07;100422.84;672544;29;1088;-82
2022/12/26 01:13:02;;;;;;;9.23;7.63;;;;;;;12.83;73.02;100435.97;675122;29;1230;-82
2022/12/26 01:13:23;;;;;;;9.20;7.30;;;;;;;12.80;73.05;100442.91;672594;29;1283;-82
2022/12/26 01:13:44;;;;;;;8.93;7.38;;;;;;;12.74;73.09;100433.25;675049;29;1970;-82
2022/12/26 01:14:12;;;;;;;9.55;7.40;;;;;;;12.81;73.11;100442.94;670008;29;1250;-82
2022/12/26 01:14:32;;;;;;;9.60;7.43;;;;;;;12.69;73.14;100435.78;672557;29;1429;-82
2022/12/26 01:14:56;;;;;;;9.73;7.67;;;;;;;12.78;73.26;100436.78;672661;29;796;-82
2022/12/26 01:15:17;;;;;;;9.45;7.90;;;;;;;12.76;73.20;100436.75;672580;29;1252;-82
2022/12/26 01:15:37;;;;;;;8.93;7.85;;;;;;;12.79;73.09;100436.78;672533;29;1326;-82
2022/12/26 01:15:58;;;;;;;8.68;7.70;;;;;;;12.83;73.21;100449.06;672751;29;785;-82
2022/12/26 01:16:18;;;;;;;8.70;7.40;;;;;;;12.80;73.00;100438.56;672590;29;1210;-83
2022/12/26 01:16:41;;;;;;;8.40;7.10;;;;;;;12.87;72.92;100440.41;675000;29;1147;-82
2022/12/26 01:17:02;;;;;;;8.18;7.10;;;;;;;12.78;72.99;100421.94;672474;29;1012;-82
2022/12/26 01:17:22;;;;;;;8.47;7.20;;;;;;;12.82;73.07;100434.22;667610;29;1125;-82
2022/12/26 01:17:43;;;;;;;8.60;7.20;;;;;;;12.79;72.99;100428.91;667541;29;1005;-82
2022/12/26 01:18:04;;;;;;;9.30;7.20;;;;;;;12.83;72.83;100438.59;670052;29;1336;-82
2022/12/26 01:18:25;;;;;;;8.30;7.00;;;;;;;12.79;73.02;100428.06;675093;29;1276;-82
2022/12/26 01:18:46;;;;;;;8.10;7.00;;;;;;;12.79;72.84;100426.31;675172;29;1228;-82
2022/12/26 01:19:07;;;;;;;7.43;6.63;;;;;;;12.81;72.74;100422.00;675160;29;1108;-82
2022/12/26 01:19:28;;;;;;;8.70;7.00;;;;;;;12.80;73.09;100429.81;670218;29;840;-82
2022/12/26 01:19:48;;;;;;;8.30;6.57;;;;;;;12.80;73.00;100425.47;672494;29;1206;-82
2022/12/26 01:20:10;;;;;;;8.32;6.80;;;;;;;12.80;72.83;100422.84;672551;29;1289;-81
2022/12/26 01:20:31;;;;;;;8.15;6.93;;;;;;;12.79;73.15;100426.31;675203;29;1272;-82
2022/12/26 01:20:59;;;;;;;9.25;7.38;;;;;;;12.80;72.93;100422.84;675203;29;850;-82
2022/12/26 01:21:19;;;;;;;8.65;6.70;;;;;;;12.76;73.01;100415.81;675060;29;1136;-82
2022/12/26 01:21:41;;;;;;;8.13;6.50;;;;;;;12.81;73.13;100426.34;669987;29;1226;-82
2022/12/26 01:22:02;;;;;;;8.48;6.57;;;;;;;12.85;72.91;100420.28;667460;29;1238;-82
2022/12/26 01:22:24;;;;;;;8.23;6.40;;;;;;;12.80;73.07;100421.97;667672;29;1028;-82
2022/12/26 01:22:44;;;;;;;7.60;6.40;;;;;;;12.73;73.18;100416.63;672607;29;939;-82
2022/12/26 01:23:05;;;;;;;8.80;6.82;;;;;;;12.70;72.97;100416.59;672624;29;1132;-82
2022/12/26 01:23:26;;;;;;;8.32;6.80;;;;;;;12.74;72.88;100414.91;672527;29;1331;-82
2022/12/26 01:23:46;;;;;;;8.37;6.93;;;;;;;12.73;73.35;100426.25;672590;29;1285;-82
2022/12/26 01:24:07;;;;;;;8.05;7.05;;;;;;;12.71;72.96;100418.34;675261;29;1095;-82
2022/12/26 01:24:28;;;;;;;8.80;7.32;;;;;;;12.82;72.83;100420.22;675325;29;1275;-81
2022/12/26 01:24:48;;;;;;;7.90;7.07;;;;;;;12.84;72.78;100432.50;675198;29;1063;-82
2022/12/26 01:25:11;;;;;;;7.50;6.80;;;;;;;12.73;72.90;100407.91;675314;29;1027;-82
2022/12/26 01:25:31;;;;;;;7.30;6.60;;;;;;;12.77;72.55;100422.78;670268;29;1057;-81
2022/12/26 01:25:52;;;;;;;7.27;6.57;;;;;;;12.80;72.80;100428.09;672785;29;852;-82
2022/12/26 01:26:12;;;;;;;7.50;6.70;;;;;;;12.75;72.87;100420.19;672703;29;1186;-82
2022/12/26 01:26:33;;;;;;;7.77;6.60;;;;;;;12.78;72.93;100427.16;675453;29;1130;-82
2022/12/26 01:26:53;;;;;;;7.97;6.90;;;;;;;12.76;72.71;100418.41;675354;29;715;-82
2022/12/26 01:27:14;;;;;;;8.55;7.15;;;;;;;12.82;72.99;100436.84;675376;29;1166;-83
2022/12/26 01:27:35;;;;;;;9.40;7.87;;;;;;;12.74;72.83;100426.25;675592;29;1208;-82
2022/12/26 01:27:55;;;;;;;8.52;7.50;;;;;;;12.78;72.73;100431.53;672845;29;1183;-82
2022/12/26 01:28:16;;;;;;;8.48;7.57;;;;;;;12.87;72.82;100434.28;675443;29;1377;-82
2022/12/26 01:28:37;;;;;;;8.00;7.20;;;;;;;12.86;72.68;100440.38;678102;29;1301;-82
2022/12/26 01:28:58;;;;;;;8.00;7.20;;;;;;;12.90;72.69;100439.53;677435;29;1377;-82
2022/12/26 01:29:19;;;;;;;8.10;7.30;;;;;;;12.83;72.77;100430.75;675497;29;1088;-82
2022/12/26 01:29:39;;;;;;;8.37;7.57;;;;;;;12.80;72.40;100435.06;672868;29;1288;-82
2022/12/26 01:30:00;;;;;;;9.38;7.85;;;;;;;12.85;72.73;100439.47;670428;29;1109;-82
2022/12/26 01:30:20;;;;;;;9.65;8.13;;;;;;;12.84;72.72;100440.34;670220;29;1279;-81
2022/12/26 01:30:41;;;;;;;9.80;7.90;;;;;;;12.92;72.50;100455.28;675350;29;1033;-82
2022/12/26 01:31:03;;;;;;;8.45;7.35;;;;;;;12.89;72.56;100449.16;672951;29;1202;-81
2022/12/26 01:31:24;;;;;;;8.85;7.20;;;;;;;12.87;72.50;100439.50;672771;29;1349;-81
2022/12/26 01:31:44;;;;;;;8.88;6.97;;;;;;;12.89;72.34;100440.41;669996;29;1124;-82
2022/12/26 01:32:05;;;;;;;9.60;7.50;;;;;;;12.92;72.29;100447.44;672776;29;1230;-81
2022/12/26 01:32:26;;;;;;;10.10;7.50;;;;;;;12.91;72.66;100445.69;672710;29;1284;-81
2022/12/26 01:32:46;;;;;;;10.45;7.82;;;;;;;12.91;72.62;100448.28;675363;29;1186;-81
2022/12/26 01:33:07;;;;;;;10.03;7.50;;;;;;;12.92;72.35;100445.69;672752;29;956;-81
2022/12/26 01:33:27;;;;;;;8.50;7.20;;;;;;;12.87;72.39;100442.13;670239;29;1351;-82
2022/12/26 01:33:48;;;;;;;8.60;7.27;;;;;;;12.82;72.67;100431.59;675024;29;2332;-82
2022/12/26 01:34:09;;;;;;;8.38;7.30;;;;;;;12.86;72.33;100443.84;672656;29;1075;-82
2022/12/26 01:34:30;;;;;;;8.83;7.70;;;;;;;12.80;72.47;100437.66;672712;29;1271;-81
2022/12/26 01:34:54;;;;;;;9.63;7.90;;;;;;;12.82;72.55;100441.19;672645;29;1282;-81
2022/12/26 01:35:14;;;;;;;10.35;8.10;;;;;;;12.81;72.41;100437.69;675138;29;1338;-81
2022/12/26 01:35:35;;;;;;;10.20;7.80;;;;;;;12.85;72.59;100439.47;675148;29;1163;-81
2022/12/26 01:35:56;;;;;;;9.85;8.00;;;;;;;12.88;72.16;100439.53;670075;29;1117;-81
2022/12/26 01:36:17;;;;;;;9.70;8.10;;;;;;;12.93;72.54;100446.56;669978;29;1299;-81
2022/12/26 01:36:38;;;;;;;10.15;8.20;;;;;;;12.86;72.29;100438.63;677651;29;1260;-81
2022/12/26 01:36:58;;;;;;;10.67;8.00;;;;;;;12.82;72.38;100430.72;675090;29;833;-82
2022/12/26 01:37:19;;;;;;;10.35;7.90;;;;;;;12.84;72.44;100437.72;675150;29;1218;-82
2022/12/26 01:37:40;;;;;;;9.52;7.80;;;;;;;12.88;72.38;100439.53;677780;29;1207;-81
2022/12/26 01:38:00;;;;;;;8.70;7.57;;;;;;;12.80;72.66;100435.06;675038;29;1258;-82
2022/12/26 01:38:21;;;;;;;9.05;7.55;;;;;;;12.78;72.60;100432.41;675068;29;1197;-82
2022/12/26 01:38:42;;;;;;;8.63;7.60;;;;;;;12.77;72.76;100432.41;675060;29;952;-82
2022/12/26 01:39:03;;;;;;;8.52;7.63;;;;;;;12.88;72.77;100436.94;672664;29;1294;-82
2022/12/26 01:39:23;;;;;;;8.77;7.88;;;;;;;12.91;72.56;100441.28;675185;29;1215;-82
2022/12/26 01:39:44;;;;;;;9.07;7.77;;;;;;;12.94;72.61;100445.72;669814;29;1215;-81
2022/12/26 01:40:05;;;;;;;9.07;7.90;;;;;;;12.91;72.37;100441.28;672522;29;1300;-81